createdAt,value
2023-01-26T00:00:41.348Z,20.07
2023-01-26T00:01:53.983Z,19.87
2023-01-26T00:02:55.827Z,20.90
2023-01-26T00:03:58.171Z,20.59
2023-01-26T00:05:00.129Z,19.69
2023-01-26T00:06:06.885Z,19.20
2023-01-26T00:07:08.750Z,17.85
2023-01-26T00:08:12.257Z,18.89
2023-01-26T00:09:15.534Z,19.82
2023-01-26T00:10:17.447Z,18.85
2023-01-26T00:11:24.457Z,19.11
2023-01-26T00:12:26.275Z,20.96
2023-01-26T00:13:28.153Z,18.96
2023-01-26T00:14:49.906Z,18.18
2023-01-26T00:15:51.994Z,17.96
2023-01-26T00:16:54.621Z,17.79
2023-01-26T00:17:56.734Z,18.19
2023-01-26T00:18:58.818Z,20.38
2023-01-26T00:20:00.855Z,21.23
2023-01-26T00:21:03.324Z,20.48
2023-01-26T00:22:05.203Z,19.45
2023-01-26T00:23:07.234Z,18.00
2023-01-26T00:24:09.260Z,18.63
2023-01-26T00:25:11.361Z,18.73
2023-01-26T00:26:31.581Z,17.68
2023-01-26T00:27:33.376Z,17.15
2023-01-26T00:28:36.260Z,17.56
2023-01-26T00:29:38.297Z,18.50
2023-01-26T00:30:40.327Z,17.27
2023-01-26T00:31:42.271Z,18.57
2023-01-26T00:32:44.203Z,22.10
2023-01-26T00:33:46.667Z,24.61
2023-01-26T00:34:48.505Z,25.49
2023-01-26T00:35:56.347Z,21.90
2023-01-26T00:36:58.097Z,19.11
2023-01-26T00:37:59.923Z,18.96
2023-01-26T00:39:02.863Z,18.51
2023-01-26T00:40:05.247Z,18.98
2023-01-26T00:41:07.446Z,18.67
2023-01-26T00:42:13.962Z,20.77
2023-01-26T00:43:16.689Z,19.49
2023-01-26T00:44:19.492Z,17.46
2023-01-26T00:45:22.184Z,17.45
2023-01-26T00:46:24.186Z,16.90
2023-01-26T00:47:26.041Z,16.65
2023-01-26T00:48:27.998Z,15.80
2023-01-26T00:49:30.240Z,16.04
2023-01-26T00:50:33.447Z,16.55
2023-01-26T00:51:35.569Z,17.01
2023-01-26T00:52:40.085Z,16.77
2023-01-26T00:53:42.000Z,17.49
2023-01-26T00:54:43.748Z,23.90
2023-01-26T00:55:45.626Z,20.71
2023-01-26T00:56:48.074Z,19.09
2023-01-26T00:57:50.788Z,19.16
2023-01-26T00:58:52.707Z,17.66
2023-01-26T00:59:54.556Z,17.20
2023-01-26T01:00:56.643Z,18.01
2023-01-26T01:02:01.558Z,18.48
2023-01-26T01:03:05.283Z,17.34
2023-01-26T01:04:07.221Z,17.41
2023-01-26T01:05:09.912Z,18.12
2023-01-26T01:06:12.054Z,17.77
2023-01-26T01:07:13.994Z,18.24
2023-01-26T01:08:15.819Z,18.08
2023-01-26T01:09:18.030Z,18.33
2023-01-26T01:10:20.619Z,18.49
2023-01-26T01:11:22.389Z,18.39
2023-01-26T01:12:27.394Z,17.97
2023-01-26T01:13:30.189Z,19.42
2023-01-26T01:14:32.257Z,21.54
2023-01-26T01:15:33.988Z,20.31
2023-01-26T01:16:35.850Z,19.12
2023-01-26T01:17:38.709Z,18.06
2023-01-26T01:18:40.916Z,17.92
2023-01-26T01:19:44.371Z,17.87
2023-01-26T01:20:47.815Z,19.46
2023-01-26T01:21:49.790Z,19.39
2023-01-26T01:22:52.335Z,19.57
2023-01-26T01:23:54.331Z,17.96
2023-01-26T01:24:56.235Z,18.61
2023-01-26T01:26:00.260Z,17.47
2023-01-26T01:27:02.228Z,18.70
2023-01-26T01:28:04.324Z,18.25
2023-01-26T01:29:08.050Z,18.85
2023-01-26T01:30:11.162Z,20.09
2023-01-26T01:31:17.565Z,19.31
2023-01-26T01:32:20.613Z,18.83
2023-01-26T01:33:24.162Z,20.42
2023-01-26T01:34:26.014Z,21.46
2023-01-26T01:35:27.776Z,22.78
2023-01-26T01:36:31.632Z,22.94
2023-01-26T01:37:33.806Z,20.71
2023-01-26T01:38:36.298Z,19.96
2023-01-26T01:39:38.154Z,20.79
2023-01-26T01:40:43.802Z,20.02
2023-01-26T01:41:45.697Z,20.17
2023-01-26T01:42:49.480Z,20.47
2023-01-26T01:43:51.832Z,20.05
2023-01-26T01:45:35.851Z,19.27
2023-01-26T01:46:38.546Z,19.96
2023-01-26T01:47:40.460Z,20.24
2023-01-26T01:48:56.172Z,20.49
2023-01-26T01:49:58.502Z,21.29
2023-01-26T01:51:08.568Z,20.72
2023-01-26T01:52:20.127Z,21.26
2023-01-26T01:53:32.874Z,19.45
2023-01-26T01:54:43.359Z,19.55
2023-01-26T01:55:47.417Z,20.37
2023-01-26T01:56:56.122Z,18.90
2023-01-26T01:58:02.086Z,19.22
2023-01-26T01:59:10.009Z,20.02
2023-01-26T02:00:19.016Z,19.99
2023-01-26T02:01:24.506Z,19.98
2023-01-26T02:02:28.147Z,19.57
2023-01-26T02:03:33.256Z,19.85
2023-01-26T02:04:35.985Z,20.10
2023-01-26T02:05:55.662Z,19.47
2023-01-26T02:07:00.743Z,18.75
2023-01-26T02:08:04.697Z,19.56
2023-01-26T02:09:09.081Z,20.15
2023-01-26T02:10:20.699Z,23.40
2023-01-26T02:11:37.972Z,22.63
2023-01-26T02:12:41.872Z,20.11
2023-01-26T02:13:47.582Z,19.44
2023-01-26T02:14:53.071Z,18.43
2023-01-26T02:15:59.971Z,18.79
2023-01-26T02:17:01.896Z,18.51
2023-01-26T02:18:05.918Z,18.93
2023-01-26T02:19:22.472Z,19.04
2023-01-26T02:20:43.124Z,19.89
2023-01-26T02:21:49.907Z,20.50
2023-01-26T02:23:00.907Z,19.91
2023-01-26T02:24:26.774Z,20.65
2023-01-26T02:25:54.742Z,20.32
2023-01-26T02:26:57.489Z,19.90
2023-01-26T02:27:59.362Z,21.18
2023-01-26T02:29:04.503Z,21.36
2023-01-26T02:30:08.684Z,21.36
2023-01-26T02:31:12.813Z,20.75
2023-01-26T02:32:15.286Z,20.66
2023-01-26T02:33:21.626Z,20.31
2023-01-26T02:34:28.824Z,21.29
2023-01-26T02:35:30.861Z,21.98
2023-01-26T02:36:35.225Z,22.40
2023-01-26T02:37:38.063Z,22.03
2023-01-26T02:38:45.007Z,22.52
2023-01-26T02:40:02.341Z,21.27
2023-01-26T02:41:10.810Z,21.12
2023-01-26T02:42:31.190Z,22.21
2023-01-26T02:43:33.542Z,20.90
2023-01-26T02:44:37.699Z,22.41
2023-01-26T02:45:41.818Z,20.71
2023-01-26T02:46:43.803Z,20.64
2023-01-26T02:47:45.804Z,21.54
2023-01-26T02:49:06.635Z,21.51
2023-01-26T02:50:10.218Z,23.87
2023-01-26T02:51:13.057Z,23.82
2023-01-26T02:52:17.493Z,23.73
2023-01-26T02:53:20.380Z,24.36
2023-01-26T02:54:41.671Z,23.72
2023-01-26T02:55:44.315Z,22.92
2023-01-26T02:56:46.176Z,22.34
2023-01-26T02:57:50.056Z,22.53
2023-01-26T02:58:52.065Z,22.36
2023-01-26T02:59:53.971Z,23.63
2023-01-26T03:00:56.096Z,23.01
2023-01-26T03:01:58.599Z,23.39
2023-01-26T03:03:02.291Z,22.92
2023-01-26T03:04:05.435Z,23.25
2023-01-26T03:05:08.038Z,23.06
2023-01-26T03:06:11.855Z,24.23
2023-01-26T03:07:14.495Z,23.00
2023-01-26T03:08:16.853Z,23.89
2023-01-26T03:09:19.043Z,24.18
2023-01-26T03:10:25.283Z,25.56
2023-01-26T03:11:42.175Z,24.80
2023-01-26T03:12:45.271Z,24.42
2023-01-26T03:13:47.046Z,25.47
2023-01-26T03:15:08.889Z,24.90
2023-01-26T03:16:12.011Z,24.22
2023-01-26T03:17:14.146Z,23.88
2023-01-26T03:18:37.388Z,23.94
2023-01-26T03:19:58.141Z,26.12
2023-01-26T03:21:20.900Z,25.39
2023-01-26T03:22:41.539Z,25.83
2023-01-26T03:24:02.784Z,27.18
2023-01-26T03:25:24.259Z,28.51
2023-01-26T03:26:47.078Z,26.59
2023-01-26T03:27:50.065Z,26.33
2023-01-26T03:28:53.038Z,27.07
2023-01-26T03:29:57.212Z,27.99
2023-01-26T03:30:59.220Z,27.34
2023-01-26T03:32:01.260Z,33.90
2023-01-26T03:33:03.566Z,30.94
2023-01-26T03:34:05.672Z,29.15
2023-01-26T03:35:10.892Z,27.22
2023-01-26T03:36:12.853Z,27.03
2023-01-26T03:37:15.037Z,29.00
2023-01-26T03:38:22.396Z,28.25
2023-01-26T03:39:44.849Z,28.06
2023-01-26T03:41:05.426Z,28.67
2023-01-26T03:42:26.525Z,28.18
2023-01-26T03:43:47.624Z,29.60
2023-01-26T03:45:08.322Z,28.12
2023-01-26T03:46:30.650Z,29.80
2023-01-26T03:47:53.218Z,29.99
2023-01-26T03:49:14.249Z,29.98
2023-01-26T03:50:35.622Z,29.43
2023-01-26T03:51:56.836Z,29.87
2023-01-26T03:53:17.318Z,29.29
2023-01-26T03:54:38.613Z,30.37
2023-01-26T03:55:59.606Z,28.90
2023-01-26T03:57:01.977Z,29.71
2023-01-26T03:58:03.816Z,32.74
2023-01-26T03:59:08.417Z,31.05
2023-01-26T04:00:11.539Z,29.78
2023-01-26T04:01:21.186Z,29.42
2023-01-26T04:02:42.576Z,31.00
2023-01-26T04:04:07.150Z,29.56
2023-01-26T04:05:28.148Z,30.90
2023-01-26T04:06:53.238Z,29.32
2023-01-26T04:08:13.891Z,31.29
2023-01-26T04:09:16.510Z,29.86
2023-01-26T04:10:18.538Z,29.58
2023-01-26T04:11:20.667Z,28.83
2023-01-26T04:12:22.799Z,29.08
2023-01-26T04:14:08.363Z,30.72
2023-01-26T04:15:29.353Z,30.79
2023-01-26T04:16:50.315Z,30.32
2023-01-26T04:18:11.800Z,29.29
2023-01-26T04:19:32.592Z,30.14
2023-01-26T04:20:53.644Z,29.29
2023-01-26T04:21:56.075Z,29.11
2023-01-26T04:22:57.975Z,30.82
2023-01-26T04:24:01.857Z,28.60
2023-01-26T04:25:03.979Z,30.44
2023-01-26T04:26:05.864Z,30.72
2023-01-26T04:27:08.027Z,30.32
2023-01-26T04:28:13.146Z,29.25
2023-01-26T04:29:16.931Z,31.31
2023-01-26T04:30:20.898Z,30.68
2023-01-26T04:31:23.035Z,30.06
2023-01-26T04:32:27.406Z,31.05
2023-01-26T04:33:29.503Z,30.80
2023-01-26T04:34:31.681Z,29.17
2023-01-26T04:35:34.044Z,31.30
2023-01-26T04:36:36.097Z,30.05
2023-01-26T04:37:39.095Z,30.07
2023-01-26T04:38:40.908Z,30.93
2023-01-26T04:39:42.937Z,29.98
2023-01-26T04:40:44.831Z,29.76
2023-01-26T04:41:47.284Z,30.72
2023-01-26T04:42:50.833Z,30.27
2023-01-26T04:43:52.680Z,30.46
2023-01-26T04:44:54.760Z,29.44
2023-01-26T04:46:01.088Z,31.47
2023-01-26T04:47:03.985Z,36.89
2023-01-26T04:48:06.279Z,33.13
2023-01-26T04:49:09.260Z,31.99
2023-01-26T04:50:11.549Z,31.16
2023-01-26T04:51:17.591Z,31.40
2023-01-26T04:52:19.676Z,30.32
2023-01-26T04:53:21.832Z,30.63
2023-01-26T04:54:23.936Z,31.19
2023-01-26T04:55:25.936Z,30.57
2023-01-26T04:56:35.995Z,30.58
2023-01-26T04:57:38.265Z,31.80
2023-01-26T04:58:40.600Z,30.17
2023-01-26T04:59:42.460Z,30.01
2023-01-26T05:00:45.577Z,29.82
2023-01-26T05:01:47.709Z,29.07
2023-01-26T05:02:50.367Z,30.80
2023-01-26T05:03:52.896Z,29.25
2023-01-26T05:04:55.270Z,29.50
2023-01-26T05:05:57.180Z,30.33
2023-01-26T05:07:00.032Z,30.73
2023-01-26T05:08:03.187Z,31.00
2023-01-26T05:09:09.216Z,28.98
2023-01-26T05:10:15.636Z,30.00
2023-01-26T05:11:28.215Z,29.35
2023-01-26T05:12:35.686Z,29.55
2023-01-26T05:13:47.417Z,29.45
2023-01-26T05:14:58.992Z,34.60
2023-01-26T05:16:27.405Z,37.60
2023-01-26T05:17:42.687Z,36.32
2023-01-26T05:18:59.115Z,31.88
2023-01-26T05:20:42.174Z,29.89
2023-01-26T05:21:52.083Z,29.66
2023-01-26T05:22:54.647Z,30.09
2023-01-26T05:24:15.531Z,33.37
2023-01-26T05:25:36.176Z,34.33
2023-01-26T05:26:42.501Z,31.05
2023-01-26T05:27:48.674Z,31.26
2023-01-26T05:28:50.587Z,29.52
2023-01-26T05:29:55.025Z,29.18
2023-01-26T05:30:57.745Z,29.75
2023-01-26T05:31:59.758Z,30.29
2023-01-26T05:33:04.945Z,30.50
2023-01-26T05:34:07.151Z,30.32
2023-01-26T05:35:11.658Z,32.20
2023-01-26T05:36:13.552Z,32.13
2023-01-26T05:37:16.282Z,31.98
2023-01-26T05:38:21.850Z,28.96
2023-01-26T05:39:23.805Z,29.57
2023-01-26T05:40:27.039Z,28.46
2023-01-26T05:41:28.939Z,27.83
2023-01-26T05:42:49.037Z,28.77
2023-01-26T05:44:04.009Z,28.95
2023-01-26T05:45:29.365Z,32.78
2023-01-26T05:46:34.401Z,36.41
2023-01-26T05:47:37.459Z,38.45
2023-01-26T05:48:39.660Z,35.92
2023-01-26T05:49:42.913Z,35.18
2023-01-26T05:50:48.203Z,33.90
2023-01-26T05:51:53.147Z,30.68
2023-01-26T05:52:54.948Z,30.42
2023-01-26T05:53:56.807Z,30.85
2023-01-26T05:55:00.071Z,29.36
2023-01-26T05:56:01.943Z,30.91
2023-01-26T05:57:06.250Z,28.86
2023-01-26T05:58:11.471Z,29.92
2023-01-26T05:59:14.157Z,28.18
2023-01-26T06:00:17.958Z,31.30
2023-01-26T06:01:25.277Z,31.06
2023-01-26T06:02:32.273Z,32.08
2023-01-26T06:03:34.183Z,31.18
2023-01-26T06:04:36.303Z,31.05
2023-01-26T06:05:39.123Z,29.16
2023-01-26T06:06:48.581Z,29.71
2023-01-26T06:08:43.754Z,25.83
2023-01-26T06:10:45.355Z,27.92
2023-01-26T06:11:59.535Z,27.62
2023-01-26T06:13:20.133Z,29.75
2023-01-26T06:14:28.851Z,29.43
2023-01-26T06:15:30.994Z,28.75
2023-01-26T06:16:34.184Z,29.77
2023-01-26T06:17:36.146Z,29.04
2023-01-26T06:18:40.683Z,28.39
2023-01-26T06:19:42.617Z,26.38
2023-01-26T06:20:44.535Z,26.68
2023-01-26T06:21:46.542Z,29.87
2023-01-26T06:22:48.555Z,27.80
2023-01-26T06:23:50.765Z,33.25
2023-01-26T06:24:53.147Z,35.44
2023-01-26T06:26:00.458Z,31.34
2023-01-26T06:27:07.179Z,27.67
2023-01-26T06:28:09.820Z,27.28
2023-01-26T06:29:12.445Z,25.92
2023-01-26T06:30:16.056Z,29.27
2023-01-26T06:31:18.143Z,45.01
2023-01-26T06:32:20.289Z,49.66
2023-01-26T06:33:26.482Z,74.40
2023-01-26T06:34:28.829Z,58.08
2023-01-26T06:35:31.076Z,41.36
2023-01-26T06:36:36.350Z,30.22
2023-01-26T06:37:39.719Z,27.44
2023-01-26T06:38:50.716Z,27.13
2023-01-26T06:39:53.186Z,25.05
2023-01-26T06:40:55.757Z,24.48
2023-01-26T06:41:57.713Z,23.97
2023-01-26T06:42:59.711Z,24.07
2023-01-26T06:44:01.613Z,23.74
2023-01-26T06:45:04.977Z,25.37
2023-01-26T06:46:07.379Z,25.42
2023-01-26T06:47:10.005Z,24.40
2023-01-26T06:48:12.108Z,23.98
2023-01-26T06:49:14.145Z,23.24
2023-01-26T06:50:20.022Z,23.86
2023-01-26T06:51:23.013Z,23.93
2023-01-26T06:52:32.737Z,23.78
2023-01-26T06:53:56.103Z,22.34
2023-01-26T06:55:05.132Z,23.60
2023-01-26T06:56:28.961Z,23.17
2023-01-26T06:57:49.782Z,23.37
2023-01-26T06:59:10.861Z,23.91
2023-01-26T07:00:31.151Z,23.98
2023-01-26T07:01:49.925Z,24.89
2023-01-26T07:02:52.085Z,24.35
2023-01-26T07:03:55.528Z,22.50
2023-01-26T07:04:57.869Z,22.68
2023-01-26T07:05:59.637Z,21.90
2023-01-26T07:07:01.664Z,22.35
2023-01-26T07:08:06.563Z,21.61
2023-01-26T07:09:08.449Z,22.48
2023-01-26T07:10:11.537Z,22.19
2023-01-26T07:11:14.857Z,23.31
2023-01-26T07:12:16.952Z,22.57
2023-01-26T07:13:18.885Z,20.57
2023-01-26T07:14:21.089Z,20.53
2023-01-26T07:15:23.050Z,20.57
2023-01-26T07:16:25.489Z,21.06
2023-01-26T07:17:27.325Z,22.19
2023-01-26T07:18:30.482Z,21.25
2023-01-26T07:19:33.869Z,21.19
2023-01-26T07:20:37.300Z,21.34
2023-01-26T07:21:39.424Z,21.05
2023-01-26T07:22:41.351Z,21.55
2023-01-26T07:23:43.510Z,21.04
2023-01-26T07:24:45.436Z,20.38
2023-01-26T07:25:47.370Z,20.70
2023-01-26T07:26:49.620Z,19.75
2023-01-26T07:27:58.539Z,20.47
2023-01-26T07:29:00.378Z,19.43
2023-01-26T07:30:02.214Z,20.67
2023-01-26T07:31:06.314Z,20.53
2023-01-26T07:32:08.201Z,20.72
2023-01-26T07:33:10.252Z,20.58
2023-01-26T07:34:12.500Z,20.49
2023-01-26T07:35:14.875Z,20.66
2023-01-26T07:36:16.698Z,21.01
2023-01-26T07:37:18.597Z,20.55
2023-01-26T07:38:20.977Z,20.47
2023-01-26T07:39:23.028Z,20.81
2023-01-26T07:40:25.344Z,20.10
2023-01-26T07:41:27.264Z,20.10
2023-01-26T07:42:31.136Z,20.84
2023-01-26T07:43:40.525Z,20.36
2023-01-26T07:44:45.554Z,20.26
2023-01-26T07:45:53.366Z,20.18
2023-01-26T07:46:55.319Z,20.80
2023-01-26T07:47:58.007Z,22.21
2023-01-26T07:48:59.823Z,21.70
2023-01-26T07:50:01.930Z,21.68
2023-01-26T07:51:05.205Z,21.42
2023-01-26T07:52:08.865Z,21.59
2023-01-26T07:53:15.018Z,22.15
2023-01-26T07:54:16.870Z,23.42
2023-01-26T07:55:26.255Z,22.38
2023-01-26T07:56:28.143Z,23.23
2023-01-26T07:57:30.706Z,21.71
2023-01-26T07:58:32.628Z,22.02
2023-01-26T07:59:34.657Z,22.27
2023-01-26T08:00:36.736Z,22.96
2023-01-26T08:01:39.530Z,22.68
2023-01-26T08:02:42.097Z,22.70
2023-01-26T08:03:47.511Z,22.07
2023-01-26T08:04:49.496Z,22.34
2023-01-26T08:05:52.996Z,22.99
2023-01-26T08:06:55.160Z,22.98
2023-01-26T08:08:00.784Z,21.65
2023-01-26T08:09:02.618Z,22.42
2023-01-26T08:10:04.920Z,21.61
2023-01-26T08:11:07.898Z,21.41
2023-01-26T08:12:09.773Z,20.05
2023-01-26T08:13:11.674Z,20.79
2023-01-26T08:14:13.734Z,20.64
2023-01-26T08:15:15.722Z,20.02
2023-01-26T08:16:18.217Z,20.01
2023-01-26T08:17:20.288Z,19.99
2023-01-26T08:18:22.438Z,21.00
2023-01-26T08:19:24.388Z,20.80
2023-01-26T08:20:26.236Z,20.79
2023-01-26T08:21:28.987Z,21.12
2023-01-26T08:22:31.073Z,20.82
2023-01-26T08:23:33.145Z,20.41
2023-01-26T08:24:35.036Z,21.92
2023-01-26T08:25:36.795Z,21.45
2023-01-26T08:26:38.855Z,20.76
2023-01-26T08:27:40.753Z,20.14
2023-01-26T08:28:42.589Z,19.79
2023-01-26T08:29:44.675Z,19.06
2023-01-26T08:30:46.692Z,19.65
2023-01-26T08:31:48.883Z,19.59
2023-01-26T08:32:50.798Z,20.24
2023-01-26T08:33:54.441Z,19.03
2023-01-26T08:34:56.402Z,19.14
2023-01-26T08:36:02.618Z,20.04
2023-01-26T08:37:04.586Z,19.57
2023-01-26T08:38:06.659Z,20.08
2023-01-26T08:39:08.691Z,19.77
2023-01-26T08:40:11.827Z,18.75
2023-01-26T08:41:14.012Z,18.80
2023-01-26T08:42:15.849Z,20.33
2023-01-26T08:43:17.643Z,20.79
2023-01-26T08:44:19.713Z,20.01
2023-01-26T08:45:22.070Z,19.80
2023-01-26T08:46:23.882Z,19.52
2023-01-26T08:47:25.871Z,19.29
2023-01-26T08:48:29.662Z,19.93
2023-01-26T08:49:31.470Z,19.36
2023-01-26T08:50:33.320Z,19.93
2023-01-26T08:51:35.501Z,20.43
2023-01-26T08:52:37.840Z,19.89
2023-01-26T08:53:39.680Z,19.98
2023-01-26T08:54:41.643Z,21.44
2023-01-26T08:55:43.739Z,21.10
2023-01-26T08:56:45.716Z,20.79
2023-01-26T08:57:52.761Z,20.89
2023-01-26T08:58:54.613Z,20.17
2023-01-26T08:59:56.534Z,20.19
2023-01-26T09:00:58.576Z,19.25
2023-01-26T09:02:00.601Z,21.31
2023-01-26T09:03:05.469Z,20.49
2023-01-26T09:04:07.618Z,21.49
2023-01-26T09:05:10.053Z,21.60
2023-01-26T09:06:14.900Z,21.76
2023-01-26T09:07:16.767Z,21.70
2023-01-26T09:08:18.651Z,21.94
2023-01-26T09:09:20.664Z,21.45
2023-01-26T09:10:23.840Z,22.74
2023-01-26T09:11:25.841Z,22.15
2023-01-26T09:12:27.734Z,22.01
2023-01-26T09:13:29.910Z,22.14
2023-01-26T09:14:31.787Z,22.71
2023-01-26T09:15:33.837Z,24.66
2023-01-26T09:16:35.776Z,22.77
2023-01-26T09:17:37.773Z,21.43
2023-01-26T09:18:39.688Z,21.46
2023-01-26T09:19:43.037Z,21.32
2023-01-26T09:20:46.252Z,20.48
2023-01-26T09:21:53.887Z,22.53
2023-01-26T09:22:55.798Z,22.65
2023-01-26T09:23:57.872Z,21.58
2023-01-26T09:24:59.681Z,21.49
2023-01-26T09:26:01.992Z,20.92
2023-01-26T09:27:03.914Z,21.64
2023-01-26T09:28:06.728Z,22.23
2023-01-26T09:29:08.892Z,21.83
2023-01-26T09:30:11.690Z,20.96
2023-01-26T09:31:13.680Z,20.83
2023-01-26T09:32:15.722Z,21.68
2023-01-26T09:33:17.657Z,20.65
2023-01-26T09:34:19.661Z,21.15
2023-01-26T09:35:21.856Z,21.14
2023-01-26T09:36:23.640Z,20.59
2023-01-26T09:37:25.560Z,20.30
2023-01-26T09:38:27.386Z,20.25
2023-01-26T09:39:29.288Z,20.56
2023-01-26T09:40:41.555Z,19.26
2023-01-26T09:42:17.205Z,21.65
2023-01-26T09:43:55.115Z,23.99
2023-01-26T09:45:23.314Z,22.76
2023-01-26T09:46:46.831Z,22.46
2023-01-26T09:48:25.346Z,25.10
2023-01-26T09:49:41.918Z,23.36
2023-01-26T09:50:58.109Z,23.11
2023-01-26T09:52:18.265Z,21.95
2023-01-26T09:53:35.663Z,20.80
2023-01-26T09:54:44.810Z,21.68
2023-01-26T09:55:49.080Z,22.44
2023-01-26T09:56:50.951Z,21.84
2023-01-26T09:58:48.817Z,21.32
2023-01-26T10:00:02.916Z,19.82
2023-01-26T10:01:22.176Z,19.35
2023-01-26T10:02:45.833Z,20.05
2023-01-26T10:04:03.301Z,19.82
2023-01-26T10:05:16.400Z,19.25
2023-01-26T10:06:29.123Z,23.46
2023-01-26T10:07:45.628Z,23.27
2023-01-26T10:08:50.215Z,21.62
2023-01-26T10:09:53.956Z,20.98
2023-01-26T10:11:03.132Z,20.37
2023-01-26T10:12:31.758Z,21.30
2023-01-26T10:13:35.053Z,21.42
2023-01-26T10:14:43.007Z,19.76
2023-01-26T10:15:52.101Z,19.91
2023-01-26T10:16:54.088Z,18.88
2023-01-26T10:17:59.150Z,18.55
2023-01-26T10:19:11.225Z,18.12
2023-01-26T10:20:24.220Z,18.27
2023-01-26T10:21:38.653Z,17.31
2023-01-26T10:22:46.520Z,19.13
2023-01-26T10:23:49.840Z,19.01
2023-01-26T10:24:55.391Z,18.92
2023-01-26T10:26:08.067Z,19.39
2023-01-26T10:27:14.791Z,19.12
2023-01-26T10:28:30.361Z,19.23
2023-01-26T10:29:32.248Z,17.99
2023-01-26T10:30:34.509Z,18.01
2023-01-26T10:31:36.612Z,19.56
2023-01-26T10:32:44.215Z,18.81
2023-01-26T10:34:11.072Z,18.91
2023-01-26T10:35:31.089Z,18.71
2023-01-26T10:36:33.061Z,19.20
2023-01-26T10:37:35.091Z,18.99
2023-01-26T10:38:37.443Z,19.80
2023-01-26T10:39:59.789Z,19.32
2023-01-26T10:41:04.432Z,18.77
2023-01-26T10:42:19.157Z,20.67
2023-01-26T10:43:21.125Z,21.03
2023-01-26T10:44:38.323Z,20.15
2023-01-26T10:45:46.989Z,21.16
2023-01-26T10:47:03.792Z,20.24
2023-01-26T10:48:19.137Z,21.38
2023-01-26T10:49:22.424Z,18.97
2023-01-26T10:50:25.778Z,18.97
2023-01-26T10:51:36.563Z,18.60
2023-01-26T10:52:38.381Z,18.83
2023-01-26T10:53:40.267Z,18.82
2023-01-26T10:54:43.983Z,17.96
2023-01-26T10:56:00.844Z,19.25
2023-01-26T10:57:18.513Z,18.68
2023-01-26T10:58:44.771Z,19.50
2023-01-26T11:00:20.058Z,19.54
2023-01-26T11:01:27.440Z,19.31
2023-01-26T11:02:31.848Z,20.80
2023-01-26T11:03:33.801Z,21.04
2023-01-26T11:04:35.751Z,20.67
2023-01-26T11:05:38.009Z,20.26
2023-01-26T11:06:39.932Z,20.28
2023-01-26T11:07:45.044Z,20.23
2023-01-26T11:08:47.206Z,20.93
2023-01-26T11:09:53.290Z,21.17
2023-01-26T11:10:57.267Z,23.99
2023-01-26T11:12:02.836Z,20.57
2023-01-26T11:13:14.570Z,19.67
2023-01-26T11:14:19.326Z,19.92
2023-01-26T11:15:24.567Z,20.46
2023-01-26T11:16:28.274Z,20.07
2023-01-26T11:17:43.353Z,20.70
2023-01-26T11:19:08.847Z,21.34
2023-01-26T11:20:31.950Z,21.19
2023-01-26T11:21:44.708Z,20.72
2023-01-26T11:23:09.244Z,21.68
2023-01-26T11:24:34.750Z,19.50
2023-01-26T11:25:49.327Z,22.86
2023-01-26T11:27:16.628Z,22.41
2023-01-26T11:28:43.359Z,22.10
2023-01-26T11:30:19.045Z,21.91
2023-01-26T11:31:43.039Z,18.78
2023-01-26T11:33:12.827Z,18.69
2023-01-26T11:34:56.513Z,18.61
2023-01-26T11:36:24.429Z,19.23
2023-01-26T11:37:44.310Z,20.76
2023-01-26T11:39:18.934Z,20.82
2023-01-26T11:40:32.267Z,18.81
2023-01-26T11:41:55.462Z,22.09
2023-01-26T11:43:19.276Z,26.69
2023-01-26T11:44:40.922Z,27.04
2023-01-26T11:46:03.254Z,21.21
2023-01-26T11:47:35.827Z,20.60
2023-01-26T11:49:07.608Z,19.31
2023-01-26T11:50:28.905Z,18.93
2023-01-26T11:52:02.792Z,19.28
2023-01-26T11:53:30.829Z,19.02
2023-01-26T11:54:58.869Z,18.81
2023-01-26T11:56:26.019Z,19.91
2023-01-26T11:57:28.708Z,23.49
2023-01-26T11:58:42.717Z,24.88
2023-01-26T12:00:28.679Z,21.28
2023-01-26T12:01:52.093Z,23.28
2023-01-26T12:03:05.733Z,23.83
2023-01-26T12:04:21.818Z,22.00
2023-01-26T12:05:29.851Z,20.43
2023-01-26T12:06:42.485Z,22.44
2023-01-26T12:08:12.722Z,23.17
2023-01-26T12:09:44.521Z,22.94
2023-01-26T12:10:56.774Z,27.46
2023-01-26T12:12:32.333Z,22.09
2023-01-26T12:13:45.908Z,20.91
2023-01-26T12:15:17.566Z,20.23
2023-01-26T12:16:44.222Z,19.00
2023-01-26T12:18:00.636Z,20.88
2023-01-26T12:19:33.480Z,20.33
2023-01-26T12:20:41.536Z,19.10
2023-01-26T12:21:45.891Z,19.97
2023-01-26T12:23:09.216Z,20.63
2023-01-26T12:24:54.028Z,20.48
2023-01-26T12:26:11.533Z,20.20
2023-01-26T12:27:37.493Z,19.27
2023-01-26T12:29:09.840Z,20.34
2023-01-26T12:30:20.663Z,19.98
2023-01-26T12:31:35.791Z,21.41
2023-01-26T12:32:37.882Z,19.94
2023-01-26T12:33:40.150Z,20.24
2023-01-26T12:34:42.514Z,19.61
2023-01-26T12:35:56.957Z,19.24
2023-01-26T12:37:16.945Z,20.07
2023-01-26T12:38:42.717Z,21.75
2023-01-26T12:39:51.220Z,19.50
2023-01-26T12:41:11.516Z,20.95
2023-01-26T12:42:19.288Z,22.34
2023-01-26T12:43:46.264Z,21.41
2023-01-26T12:45:02.478Z,22.12
2023-01-26T12:46:08.337Z,21.48
2023-01-26T12:47:32.737Z,20.94
2023-01-26T12:49:04.101Z,22.46
2023-01-26T12:50:15.400Z,21.92
2023-01-26T12:51:30.306Z,24.21
2023-01-26T12:52:42.618Z,20.15
2023-01-26T12:54:14.410Z,19.14
2023-01-26T12:55:23.102Z,18.51
2023-01-26T12:56:47.670Z,18.38
2023-01-26T12:58:05.249Z,18.33
2023-01-26T12:59:48.235Z,17.92
2023-01-26T13:01:11.820Z,19.23
2023-01-26T13:02:13.943Z,19.89
2023-01-26T13:03:22.948Z,19.02
2023-01-26T13:04:25.753Z,19.71
2023-01-26T13:05:36.426Z,18.94
2023-01-26T13:06:38.760Z,21.16
2023-01-26T13:07:40.955Z,22.51
2023-01-26T13:08:54.029Z,21.74
2023-01-26T13:10:14.964Z,22.12
2023-01-26T13:11:39.211Z,19.94
2023-01-26T13:12:55.157Z,20.47
2023-01-26T13:13:57.766Z,19.95
2023-01-26T13:15:01.035Z,19.43
2023-01-26T13:16:18.040Z,22.97
2023-01-26T13:17:20.225Z,21.38
2023-01-26T13:19:08.761Z,20.23
2023-01-26T13:20:43.581Z,20.47
2023-01-26T13:21:45.390Z,20.51
2023-01-26T13:22:47.736Z,21.29
2023-01-26T13:23:52.236Z,20.74
2023-01-26T13:24:54.490Z,22.26
2023-01-26T13:26:20.556Z,29.40
2023-01-26T13:27:41.065Z,24.76
2023-01-26T13:28:44.459Z,20.50
2023-01-26T13:29:55.371Z,20.45
2023-01-26T13:31:07.450Z,20.10
2023-01-26T13:32:09.301Z,20.32
2023-01-26T13:33:25.262Z,19.62
2023-01-26T13:34:37.136Z,18.28
2023-01-26T13:35:39.711Z,18.47
2023-01-26T13:36:48.308Z,19.77
2023-01-26T13:37:53.398Z,20.67
2023-01-26T13:39:03.847Z,21.30
2023-01-26T13:40:15.380Z,21.63
2023-01-26T13:41:21.195Z,19.51
2023-01-26T13:42:28.629Z,19.49
2023-01-26T13:43:45.505Z,20.75
2023-01-26T13:45:31.358Z,20.00
2023-01-26T13:47:07.384Z,19.77
2023-01-26T13:48:20.841Z,19.28
2023-01-26T13:49:26.015Z,19.86
2023-01-26T13:50:33.840Z,19.34
2023-01-26T13:51:35.938Z,19.54
2023-01-26T13:52:42.529Z,18.40
2023-01-26T13:54:01.647Z,18.54
2023-01-26T13:55:13.651Z,17.79
2023-01-26T13:56:30.496Z,18.48
2023-01-26T13:57:32.407Z,18.67
2023-01-26T13:58:34.751Z,19.23
2023-01-26T13:59:52.613Z,19.58
2023-01-26T14:01:15.232Z,21.66
2023-01-26T14:02:33.904Z,31.73
2023-01-26T14:03:35.870Z,21.40
2023-01-26T14:04:37.880Z,20.19
2023-01-26T14:05:40.430Z,25.68
2023-01-26T14:06:48.827Z,21.93
2023-01-26T14:07:51.098Z,18.84
2023-01-26T14:08:55.827Z,19.74
2023-01-26T14:10:02.268Z,19.90
2023-01-26T14:11:16.543Z,19.89
2023-01-26T14:12:33.773Z,19.00
2023-01-26T14:13:40.315Z,20.65
2023-01-26T14:14:48.237Z,19.04
2023-01-26T14:16:00.284Z,20.64
2023-01-26T14:17:09.041Z,20.13
2023-01-26T14:18:21.617Z,20.06
2023-01-26T14:19:24.005Z,22.24
2023-01-26T14:20:30.562Z,20.35
2023-01-26T14:21:33.246Z,19.92
2023-01-26T14:22:35.265Z,19.40
2023-01-26T14:23:37.687Z,19.44
2023-01-26T14:24:43.268Z,18.94
2023-01-26T14:26:11.581Z,19.95
2023-01-26T14:27:39.246Z,20.52
2023-01-26T14:28:43.681Z,21.06
2023-01-26T14:29:45.806Z,19.73
2023-01-26T14:30:55.191Z,19.97
2023-01-26T14:31:59.553Z,20.24
2023-01-26T14:33:11.691Z,30.01
2023-01-26T14:34:23.522Z,27.41
2023-01-26T14:35:25.746Z,28.62
2023-01-26T14:36:39.253Z,32.09
2023-01-26T14:37:41.261Z,24.71
2023-01-26T14:38:46.826Z,21.73
2023-01-26T14:39:48.954Z,21.09
2023-01-26T14:40:54.135Z,20.38
2023-01-26T14:41:56.902Z,20.11